Aviation Digital Data Service (ADDS)

Output produced by METARs form (0330 UTC 19 August 2019)
found at http://www.aviationweather.gov/metar/data/
 
Forecast for: ESSA (STOCKHOLM/ARLAND, SE)
Text: TAF ESSA 182330Z 1900/1924 17008KT 9999 FEW009 BKN045
Forecast period: 0000 to 0100 UTC 19 August 2019
Forecast type: FROM: standard forecast or significant change
Winds: from the S (170 degrees) at 9 MPH (8 knots; 4.1 m/s)
Visibility: 6 or more miles 10+ km)
Ceiling: 4500 feet AGL
Clouds: few clouds at 900 feet AGL
broken clouds at 4500 feet AGL
Weather: no significant weather forecast for this period
Text: PROB40 1900/1902 4000 -SHRA BR BKN009 BKN025CB
Forecast period: 0000 to 0200 UTC 19 August 2019
Forecast type: PROBABLE: 40 percent likelihood of the following during this time
Visibility: 2.49 miles (4.01 km)
Ceiling: 900 feet AGL
Clouds: broken clouds at 900 feet AGL
broken clouds at 2500 feet AGL
Weather: -SHRA BR  (light rain showers, mist)
Text: BECMG 1901/1903 24010KT
Forecast period: 0100 UTC 19 August 2019 to 0000 UTC 20 August 2019
Forecast type: BECOMING: Conditions expected to become as follows by 0300 UTC 19 August 2019
Winds: from the WSW (240 degrees) at 12 MPH (10 knots; 5.1 m/s)
Visibility: 6 or more miles 10+ km)
Ceiling: 4500 feet AGL
Clouds: few clouds at 900 feet AGL
broken clouds at 4500 feet AGL
Weather: no significant weather forecast for this period